Latest Weather Observations for Coffs Harbour Airport

IDN60801

Issued at 5:03 pm EDT Saturday 5 December 2020 (issued every 10 minutes, with the page automatically refreshed every 10 minutes)

About weather observations | Map of weather stations | Latest weather observations for NSW | Other Formats
Station Details ID: 059151 Name: COFFS HARBOUR AIRPORT Lat: -30.32 Lon: 153.12 Height: 3.5 m
Data from the previous 72 hours. | See also: Recent months at Coffs Harbour Airport
Date/Time
EDT
Temp
°C
App
Temp
°C
Dew
Point
°C
Rel
Hum
%
Delta-T
°C
Wind Press
QNH
hPa
Press
MSL
hPa
Rain since
9am
mm
Dir  Spd
km/h
Gust
km/h
Spd
kts
Gust
kts
05/05:00pm 27.6 26.9 20.2 64 4.9 NE 24 32 13 17 1006.6 1006.6 0.0
05/04:30pm 27.6 25.3 20.2 64 4.8 NNE 32 43 17 23 1007.4 1007.4 0.0
05/04:00pm 26.1 24.2 20.9 73 3.4 NE 32 46 17 25 1007.1 1007.1 0.0
05/03:30pm 28.6 26.2 20.3 60 5.5 NE 33 46 18 25 1007.3 1007.3 0.0
05/03:00pm 27.1 25.3 21.6 72 3.7 NE 33 41 18 22 1007.7 1007.7 0.0
05/02:30pm 27.0 24.3 22.0 74 3.4 NE 39 52 21 28 1007.8 1007.8 0.0
05/02:00pm 27.5 24.8 22.0 72 3.7 NNE 39 52 21 28 1008.2 1008.2 0.0
05/01:30pm 28.3 26.3 23.2 74 3.5 NE 39 50 21 27 1008.9 1008.9 0.0
05/01:00pm 27.5 25.2 22.7 75 3.3 NE 39 50 21 27 1009.5 1009.5 0.0
05/12:30pm 27.4 26.2 22.6 75 3.2 NE 33 43 18 23 1010.0 1010.0 0.0
05/12:12pm 26.7 24.9 22.3 77 3.0 NE 35 46 19 25 1010.2 1010.2 0.0
05/12:00pm 25.8 24.6 22.3 81 2.4 NE 32 41 17 22 1010.5 1010.5 0.0
05/11:39am 25.0 23.4 21.9 83 2.1 NE 33 41 18 22 1011.0 1011.0 0.0
05/11:30am 25.5 24.2 22.4 83 2.1 NE 33 41 18 22 1011.0 1011.0 0.0
05/11:00am 27.0 26.5 22.2 75 3.2 NE 28 35 15 19 1011.5 1011.5 0.0
05/10:30am 27.8 28.1 23.0 75 3.3 NE 26 33 14 18 1012.0 1012.0 0.0
05/10:00am 27.5 28.0 22.0 72 3.7 NE 22 30 12 16 1012.4 1012.4 0.0
05/09:30am 28.0 29.0 21.8 69 4.2 NE 19 26 10 14 1012.6 1012.6 0.0
05/09:00am 27.6 28.5 21.9 71 3.8 N 20 30 11 16 1012.8 1012.8 0.0
05/08:30am 26.6 27.7 22.0 76 3.1 N 19 26 10 14 1013.0 1013.0 0.0
05/08:00am 25.7 27.9 21.1 76 3.0 N 11 17 6 9 1013.3 1013.3 0.0
05/07:30am 24.2 28.1 20.3 79 2.5 CALM 0 0 0 0 1013.2 1013.2 0.0
05/07:00am 22.0 25.6 19.7 87 1.5 CALM 0 0 0 0 1012.8 1012.8 0.0
05/06:30am 20.5 23.8 19.2 92 0.8 CALM 0 0 0 0 1012.7 1012.7 0.0
05/06:00am 19.3 22.2 18.1 93 0.7 CALM 0 7 0 4 1012.4 1012.4 0.0
05/05:30am 18.9 21.2 17.7 93 0.7 W 2 7 1 4 1012.3 1012.3 0.0
05/05:00am 18.6 21.1 17.3 92 0.8 CALM 0 0 0 0 1012.2 1012.2 0.0
05/04:30am 18.8 21.4 17.5 92 0.8 CALM 0 0 0 0 1012.0 1012.0 0.0
05/04:00am 19.0 21.7 17.7 92 0.8 CALM 0 0 0 0 1011.9 1011.9 0.0
05/03:30am 19.2 20.8 17.9 92 0.8 W 6 7 3 4 1011.8 1011.8 0.0
05/03:00am 19.5 22.4 18.3 93 0.7 CALM 0 0 0 0 1012.1 1012.1 0.0
05/02:30am 19.6 22.5 18.3 92 0.8 CALM 0 0 0 0 1012.3 1012.3 0.0
05/02:00am 19.5 22.4 18.2 92 0.8 CALM 0 0 0 0 1012.3 1012.3 0.0
05/01:30am 20.6 24.0 19.3 92 0.8 CALM 0 0 0 0 1012.4 1012.4 0.0
05/01:00am 20.1 23.2 18.6 91 0.9 CALM 0 0 0 0 1012.8 1012.8 0.0
05/12:30am 20.7 24.0 19.2 91 0.9 CALM 0 0 0 0 1013.3 1013.3 0.0
05/12:00am 20.9 24.2 19.2 90 1.1 CALM 0 0 0 0 1013.3 1013.3 0.0
 
Date/Time
EDT
Temp
°C
App
Temp
°C
Dew
Point
°C
Rel
Hum
%
Delta-T
°C
Wind Press
QNH
hPa
Press
MSL
hPa
Rain since
9am
mm
Dir  Spd
km/h
Gust
km/h
Spd
kts
Gust
kts
04/11:30pm 21.2 24.6 19.3 89 1.2 CALM 0 0 0 0 1013.3 1013.3 0.0
04/11:00pm 21.9 25.6 20.0 89 1.2 CALM 0 0 0 0 1013.5 1013.5 0.0
04/10:30pm 22.0 25.7 19.9 88 1.3 CALM 0 6 0 3 1013.4 1013.4 0.0
04/10:00pm 22.2 26.0 20.1 88 1.4 CALM 0 0 0 0 1013.4 1013.4 0.0
04/09:30pm 22.7 26.5 20.2 86 1.6 CALM 0 0 0 0 1013.4 1013.4 0.0
04/09:00pm 22.9 25.2 20.6 87 1.5 SW 9 11 5 6 1013.4 1013.4 0.0
04/08:30pm 22.9 25.4 20.2 85 1.7 SW 7 9 4 5 1013.2 1013.2 0.0
04/08:00pm 23.9 26.6 20.6 82 2.2 SW 7 9 4 5 1012.9 1012.9 0.0
04/07:30pm 24.5 26.8 20.6 79 2.5 SSW 9 11 5 6 1012.6 1012.6 0.0
04/07:00pm 25.4 26.6 20.6 75 3.1 SSW 15 19 8 10 1012.5 1012.5 0.0
04/06:30pm 25.9 27.0 21.3 76 3.0 S 17 20 9 11 1011.9 1011.9 0.0
04/06:00pm 26.5 27.5 21.7 75 3.2 S 19 22 10 12 1011.5 1011.5 0.0
04/05:30pm 26.7 27.6 21.5 73 3.5 S 19 26 10 14 1011.6 1011.6 0.0
04/05:00pm 27.0 26.9 21.5 72 3.7 S 24 30 13 16 1011.7 1011.7 0.0
04/04:30pm 27.4 27.5 21.2 69 4.1 S 22 28 12 15 1011.8 1011.8 0.0
04/04:00pm 27.8 28.2 19.8 61 5.2 S 17 24 9 13 1011.8 1011.8 0.0
04/03:30pm 27.8 29.2 19.6 61 5.3 S 11 17 6 9 1011.9 1011.9 0.0
04/03:00pm 27.4 28.3 18.4 58 5.7 SSE 11 17 6 9 1012.1 1012.1 0.0
04/02:30pm 27.9 29.1 19.1 58 5.7 SSE 11 15 6 8 1012.1 1012.1 0.0
04/02:00pm 27.9 28.6 18.0 55 6.3 E 11 15 6 8 1012.3 1012.3 0.0
04/01:30pm 27.4 27.7 17.0 53 6.5 SE 11 13 6 7 1012.5 1012.5 0.0
04/01:00pm 28.1 28.9 18.2 55 6.3 SSE 11 15 6 8 1012.8 1012.8 0.0
04/12:30pm 27.8 28.2 18.2 56 6.1 SSE 13 19 7 10 1012.9 1012.9 0.0
04/12:00pm 29.2 29.7 18.3 51 7.0 SE 13 15 7 8 1013.0 1013.0 0.0
04/11:30am 28.1 27.9 15.7 46 7.6 SSE 11 17 6 9 1013.4 1013.4 0.0
04/11:00am 28.9 29.0 17.4 49 7.3 S 13 17 7 9 1013.5 1013.5 0.0
04/10:30am 28.9 29.4 18.4 53 6.7 S 13 15 7 8 1013.4 1013.4 0.0
04/10:00am 28.8 27.8 16.7 48 7.6 S 17 22 9 12 1013.4 1013.4 0.0
04/09:30am 28.1 28.0 18.8 57 6.0 SSW 17 20 9 11 1013.5 1013.5 0.0
04/09:00am 27.4 27.4 18.1 57 5.9 SW 15 19 8 10 1013.5 1013.5 4.0
04/08:30am 25.1 26.4 19.2 70 3.8 WSW 11 13 6 7 1013.4 1013.4 4.0
04/08:00am 26.7 27.1 17.2 56 5.9 WNW 11 19 6 10 1013.2 1013.2 4.0
04/07:30am 25.6 26.6 17.8 62 4.9 NW 9 15 5 8 1013.2 1013.2 4.0
04/07:18am 25.3 26.7 17.7 62 4.8 NNW 7 19 4 10 1013.1 1013.1 4.0
04/07:02am 24.0 25.7 18.4 71 3.5 NNE 7 11 4 6 1013.2 1013.2 4.0
04/07:00am 23.8 25.2 17.8 69 3.7 NNE 7 11 4 6 1013.1 1013.1 4.0
04/06:30am 24.4 24.4 17.1 63 4.5 ESE 13 17 7 9 1013.2 1013.2 4.0
04/06:00am 23.9 26.0 16.2 62 4.7 CALM 0 6 0 3 1012.7 1012.7 4.0
04/05:30am 25.3 26.1 15.9 56 5.7 SW 6 11 3 6 1012.4 1012.4 4.0
04/05:00am 25.3 24.5 16.2 57 5.6 WNW 15 26 8 14 1012.0 1012.0 4.0
04/04:30am 25.0 23.3 16.2 58 5.4 NW 20 30 11 16 1012.0 1012.0 4.0
04/04:00am 24.0 21.0 16.8 64 4.4 NW 28 33 15 18 1012.4 1012.4 4.0
04/03:30am 24.1 20.8 17.1 65 4.3 NW 30 43 16 23 1013.4 1013.4 4.0
04/03:00am 23.6 19.6 17.6 69 3.7 NW 35 48 19 26 1014.1 1014.1 4.0
04/02:30am 22.8 18.6 18.1 75 2.9 NW 37 50 20 27 1015.5 1015.5 4.0
04/02:21am 22.6 20.0 18.6 78 2.5 NW 30 50 16 27 1015.5 1015.5 4.0
04/02:00am 21.6 20.9 19.5 88 1.3 NNE 22 35 12 19 1015.8 1015.8 3.8
04/01:30am 21.4 22.5 19.7 90 1.1 NE 13 17 7 9 1017.7 1017.7 3.8
04/01:00am 21.6 24.5 19.9 90 1.1 NE 4 11 2 6 1017.9 1017.9 3.8
04/12:30am 21.4 24.7 19.9 91 1.0 WNW 2 7 1 4 1018.4 1018.4 3.8
04/12:00am 21.4 22.0 20.2 93 0.8 SW 17 28 9 15 1018.6 1018.6 3.6
 
Date/Time
EDT
Temp
°C
App
Temp
°C
Dew
Point
°C
Rel
Hum
%
Delta-T
°C
Wind Press
QNH
hPa
Press
MSL
hPa
Rain since
9am
mm
Dir  Spd
km/h
Gust
km/h
Spd
kts
Gust
kts
03/11:30pm 21.5 20.8 20.3 93 0.8 SSW 24 26 13 14 1020.1 1020.1 3.4
03/11:00pm 21.6 23.0 20.4 93 0.8 WSW 13 15 7 8 1020.9 1020.9 3.4
03/10:30pm 21.7 22.4 20.5 93 0.8 WSW 17 22 9 12 1021.2 1021.2 3.0
03/10:00pm 21.8 23.3 20.6 93 0.8 WSW 13 15 7 8 1021.5 1021.5 2.4
03/09:30pm 21.9 23.9 20.7 93 0.8 W 11 13 6 7 1021.0 1021.0 1.4
03/09:00pm 21.9 26.0 20.7 93 0.8 CALM 0 0 0 0 1019.9 1019.9 1.4
03/08:30pm 22.0 26.1 20.8 93 0.8 CALM 0 0 0 0 1019.0 1019.0 1.4
03/08:08pm 22.1 26.3 20.9 93 0.8 CALM 0 0 0 0 1018.5 1018.5 1.4
03/08:00pm 22.1 25.1 20.9 93 0.8 WNW 6 11 3 6 1018.6 1018.6 1.4
03/07:30pm 22.1 25.9 20.9 93 0.8 WNW 2 9 1 5 1018.3 1018.3 1.4
03/07:06pm 22.1 25.5 20.9 93 0.8 WNW 4 9 2 5 1017.9 1017.9 1.4
03/07:00pm 22.1 24.9 20.9 93 0.8 WNW 7 11 4 6 1018.2 1018.2 1.2
03/06:30pm 22.1 24.5 20.9 93 0.8 SW 9 13 5 7 1018.3 1018.3 1.2
03/06:00pm 22.1 24.1 20.7 92 0.9 WSW 11 15 6 8 1019.6 1019.6 1.0
03/05:45pm 22.2 24.6 20.8 92 0.9 SW 9 15 5 8 1019.5 1019.5 1.0
03/05:31pm 22.2 23.8 20.7 91 1.0 SSW 13 15 7 8 1019.2 1019.2 1.0
03/05:30pm 22.2 24.2 20.7 91 1.0 SSW 11 13 6 7 1019.2 1019.2 1.0
03/05:00pm 22.2 24.1 20.5 90 1.1 SSW 11 13 6 7 1019.0 1019.0 1.0
03/04:30pm 22.6 24.2 20.7 89 1.2 S 13 15 7 8 1018.9 1018.9 1.0
03/04:21pm 22.8 24.1 20.9 89 1.2 S 15 17 8 9 1019.0 1019.0 1.0
03/04:04pm 23.0 24.0 21.1 89 1.2 S 17 20 9 11 1019.1 1019.1 1.0
03/04:00pm 22.7 23.5 20.6 88 1.4 S 17 20 9 11 1019.1 1019.1 1.0
03/03:30pm 22.7 23.6 20.8 89 1.2 SSW 17 20 9 11 1019.3 1019.3 1.0
03/03:19pm 22.7 23.3 21.0 90 1.1 SSW 19 24 10 13 1019.4 1019.4 1.0
03/03:18pm 22.9 23.7 21.4 91 1.0 SSW 19 24 10 13 1019.4 1019.4 1.0
03/03:08pm 22.6 23.3 21.2 92 0.9 SSW 19 24 10 13 1019.4 1019.4 1.0
03/03:00pm 22.2 22.6 20.7 91 1.0 S 19 24 10 13 1019.6 1019.6 1.0
03/02:52pm 22.1 22.9 20.6 91 1.0 S 17 20 9 11 1019.7 1019.7 1.0
03/02:44pm 22.3 23.2 20.8 91 1.0 S 17 20 9 11 1019.7 1019.7 1.0
03/02:37pm 22.3 22.6 20.8 91 1.0 S 20 24 11 13 1019.8 1019.8 1.0
03/02:30pm 22.9 23.6 21.5 92 0.9 S 20 24 11 13 1019.9 1019.9 1.0
03/02:00pm 22.3 23.3 21.1 93 0.8 S 17 19 9 10 1020.3 1020.3 1.0
03/01:30pm 22.1 23.4 20.9 93 0.8 SSW 15 19 8 10 1020.6 1020.6 0.6
03/01:00pm 21.9 23.0 20.5 92 0.9 SSW 15 17 8 9 1020.7 1020.7 0.4
03/12:30pm 22.1 23.6 20.6 91 1.0 SW 13 17 7 9 1020.6 1020.6 0.2
03/12:00pm 22.7 23.7 21.0 90 1.1 SW 17 24 9 13 1020.7 1020.7 0.0
03/11:30am 22.3 22.9 20.2 88 1.4 SW 17 26 9 14 1021.0 1021.0 0.0
03/11:15am 22.2 22.5 19.7 86 1.6 SW 17 24 9 13 1021.1 1021.1 0.0
03/11:00am 22.5 22.5 20.2 87 1.5 SW 20 26 11 14 1021.2 1021.2 0.0
03/10:41am 21.8 20.7 19.5 87 1.5 SW 24 30 13 16 1021.4 1021.4 0.0
03/10:30am 21.4 20.6 19.3 88 1.3 SW 22 30 12 16 1021.6 1021.6 0.0
03/10:27am 21.5 20.7 19.2 87 1.5 SW 22 30 12 16 1021.6 1021.6 0.0
03/10:00am 21.6 20.9 19.5 88 1.3 SW 22 30 12 16 1021.5 1021.5 0.0
03/09:30am 21.4 20.9 19.1 87 1.5 SW 20 28 11 15 1021.6 1021.6 0.0
03/09:00am 21.3 20.5 19.2 88 1.3 WSW 22 30 12 16 1021.6 1021.6 7.8
03/08:30am 21.0 19.6 18.9 88 1.3 SW 24 32 13 17 1021.6 1021.6 7.8
03/08:12am 20.5 19.4 18.6 89 1.2 SW 22 32 12 17 1021.7 1021.7 7.8
03/08:00am 20.5 19.5 18.8 90 1.1 WSW 22 32 12 17 1021.7 1021.7 7.8
03/07:54am 20.4 19.0 18.9 91 0.9 WSW 24 32 13 17 1021.6 1021.6 7.8
03/07:37am 20.4 19.4 18.9 91 0.9 SW 22 32 12 17 1021.4 1021.4 7.8
03/07:30am 20.3 18.8 18.6 90 1.1 SW 24 32 13 17 1021.4 1021.4 7.8
03/07:00am 20.3 18.3 18.4 89 1.2 SW 26 35 14 19 1021.1 1021.1 7.8
03/06:30am 20.2 18.6 18.3 89 1.2 SW 24 33 13 18 1020.9 1020.9 7.8
03/06:17am 20.1 18.1 18.2 89 1.2 SW 26 32 14 17 1020.9 1020.9 7.8
03/06:00am 20.0 18.7 18.1 89 1.2 SW 22 32 12 17 1021.0 1021.0 7.8
03/05:30am 19.8 18.6 18.3 91 0.9 SW 22 33 12 18 1020.9 1020.9 7.8
03/05:24am 19.7 18.8 18.2 91 0.9 SW 20 30 11 16 1020.9 1020.9 7.8
03/05:05am 19.6 18.7 18.3 92 0.8 WSW 20 28 11 15 1021.0 1021.0 7.8
03/05:00am 19.7 18.9 18.4 92 0.8 WSW 20 28 11 15 1021.0 1021.0 7.8
03/04:42am 19.7 18.9 18.4 92 0.8 SW 20 30 11 16 1021.0 1021.0 7.8
03/04:30am 19.7 18.1 18.4 92 0.8 SW 24 32 13 17 1021.0 1021.0 7.8
03/04:13am 19.8 19.0 18.5 92 0.8 SW 20 30 11 16 1021.1 1021.1 7.8
03/04:00am 19.8 19.0 18.5 92 0.8 SW 20 32 11 17 1021.0 1021.0 7.8
03/03:30am 19.8 19.0 18.5 92 0.8 SW 20 28 11 15 1021.0 1021.0 7.8
03/03:00am 19.7 19.1 18.5 93 0.7 SW 19 28 10 15 1021.1 1021.1 7.8
03/02:56am 19.7 19.1 18.5 93 0.7 SW 19 28 10 15 1021.1 1021.1 7.6
03/02:30am 19.8 19.3 18.6 93 0.7 SW 19 26 10 14 1021.2 1021.2 7.6
03/02:02am 19.8 19.0 18.5 92 0.8 SW 20 30 11 16 1021.0 1021.0 7.6
03/02:00am 19.8 19.0 18.5 92 0.8 SW 20 30 11 16 1021.0 1021.0 7.6
03/01:30am 20.0 18.1 18.5 91 0.9 SW 26 33 14 18 1021.0 1021.0 7.6
03/01:05am 20.4 18.4 18.3 88 1.3 SW 26 33 14 18 1021.0 1021.0 7.6
03/01:00am 20.4 18.8 18.3 88 1.3 SW 24 33 13 18 1021.0 1021.0 7.6
03/12:30am 20.4 19.2 18.3 88 1.3 SW 22 30 12 16 1020.9 1020.9 7.6
03/12:00am 20.4 18.9 18.5 89 1.2 SW 24 33 13 18 1021.0 1021.0 7.6
 
Date/Time
EDT
Temp
°C
App
Temp
°C
Dew
Point
°C
Rel
Hum
%
Delta-T
°C
Wind Press
QNH
hPa
Press
MSL
hPa
Rain since
9am
mm
Dir  Spd
km/h
Gust
km/h
Spd
kts
Gust
kts
02/11:30pm 20.3 18.8 18.6 90 1.1 SW 24 33 13 18 1021.2 1021.2 7.6
02/11:00pm 20.4 19.3 18.7 90 1.1 SW 22 30 12 16 1021.9 1021.9 7.6
02/10:30pm 20.5 19.9 18.8 90 1.1 SW 20 26 11 14 1022.4 1022.4 7.6
02/10:00pm 20.4 20.0 18.9 91 0.9 SW 19 26 10 14 1022.6 1022.6 7.6
02/09:30pm 20.3 19.8 19.0 92 0.8 SW 20 33 11 18 1022.5 1022.5 7.6
02/09:00pm 20.4 19.1 19.1 92 0.8 SW 24 30 13 16 1022.5 1022.5 7.4
02/08:34pm 20.3 19.8 19.0 92 0.8 SW 20 30 11 16 1021.7 1021.7 7.0
02/08:30pm 20.3 19.4 19.0 92 0.8 SW 22 30 12 16 1021.5 1021.5 6.8
02/08:00pm 20.4 19.0 18.9 91 0.9 SSW 24 30 13 16 1021.4 1021.4 5.6
02/07:30pm 20.5 19.6 19.0 91 0.9 SW 22 30 12 16 1021.0 1021.0 3.2
02/07:00pm 20.9 19.6 19.0 89 1.2 SW 24 32 13 17 1020.5 1020.5 1.2
02/06:56pm 20.9 19.6 19.0 89 1.2 SW 24 32 13 17 1020.4 1020.4 1.0
02/06:48pm 21.0 19.7 19.1 89 1.2 SW 24 33 13 18 1020.3 1020.3 0.6
02/06:38pm 21.0 19.4 19.1 89 1.2 SW 26 35 14 19 1020.1 1020.1 0.4
02/06:30pm 21.0 19.8 19.3 90 1.1 SW 24 30 13 16 1020.0 1020.0 0.4
02/06:25pm 21.0 19.8 19.3 90 1.1 SW 24 30 13 16 1019.7 1019.7 0.4
02/06:24pm 21.0 19.8 19.3 90 1.1 SW 24 30 13 16 1019.7 1019.7 0.4
02/06:00pm 21.0 19.4 19.1 89 1.2 SSW 26 37 14 20 1018.7 1018.7 0.0
02/05:47pm 21.0 18.1 18.9 88 1.3 SSW 32 43 17 23 1018.7 1018.7 0.0
02/05:30pm 21.4 19.0 19.0 86 1.5 SSW 30 39 16 21 1017.7 1017.7 0.0
02/05:23pm 21.6 19.2 19.0 85 1.6 SSW 30 41 16 22 1017.6 1017.6 0.0

Other formats

Comma delimited format used in spreadsheet applications
http://www.bom.gov.au/fwo/IDN60801/IDN60801.95729.axf

JavaScript Object Notation format (JSON) in row-major order
http://www.bom.gov.au/fwo/IDN60801/IDN60801.95729.json

Data quality

Most of these data are generated automatically and are frequently updated. Quality checks on data are not normally performed. It is possible for incorrect values to appear. Refer to information at About Latest Weather Observations and please check the disclaimer before using these data.